createdAt,value
2023-12-11T00:00:49.469Z,977.172
2023-12-11T00:02:50.174Z,977.225
2023-12-11T00:04:49.964Z,977.225
2023-12-11T00:06:49.823Z,977.296
2023-12-11T00:08:49.595Z,977.257
2023-12-11T00:10:49.531Z,977.221
2023-12-11T00:12:50.263Z,977.131
2023-12-11T00:14:50.054Z,977.169
2023-12-11T00:16:49.873Z,977.270
2023-12-11T00:18:49.835Z,977.152
2023-12-11T00:20:49.725Z,977.186
2023-12-11T00:22:49.497Z,977.188
2023-12-11T00:24:50.399Z,977.116
2023-12-11T00:26:50.215Z,977.085
2023-12-11T00:28:49.957Z,977.080
2023-12-11T00:30:49.822Z,977.080
2023-12-11T00:32:49.774Z,977.077
2023-12-11T00:34:49.744Z,977.206
2023-12-11T00:36:49.700Z,977.280
2023-12-11T00:38:49.431Z,977.304
2023-12-11T00:40:50.242Z,977.240
2023-12-11T00:42:50.071Z,977.144
2023-12-11T00:44:49.847Z,977.206
2023-12-11T00:46:49.673Z,977.079
2023-12-11T00:48:49.607Z,977.163
2023-12-11T00:50:50.325Z,977.104
2023-12-11T00:52:50.113Z,977.199
2023-12-11T00:54:49.976Z,977.156
2023-12-11T00:56:49.745Z,977.215
2023-12-11T00:58:49.367Z,977.215
2023-12-11T01:00:50.267Z,977.245
2023-12-11T01:02:49.993Z,977.235
2023-12-11T01:04:49.892Z,977.416
2023-12-11T01:06:49.647Z,977.417
2023-12-11T01:08:49.538Z,977.415
2023-12-11T01:10:50.302Z,977.375
2023-12-11T01:12:50.101Z,977.415
2023-12-11T01:14:49.885Z,977.402
2023-12-11T01:16:49.743Z,977.327
2023-12-11T01:18:49.749Z,977.313
2023-12-11T01:20:49.549Z,977.313
2023-12-11T01:22:50.332Z,977.264
2023-12-11T01:24:50.275Z,977.231
2023-12-11T01:26:50.252Z,977.220
2023-12-11T01:28:49.970Z,977.257
2023-12-11T01:30:49.879Z,977.257
2023-12-11T01:32:49.645Z,977.164
2023-12-11T01:34:49.603Z,977.115
2023-12-11T01:36:49.502Z,977.275
2023-12-11T01:38:50.239Z,977.317
2023-12-11T01:40:50.162Z,977.306
2023-12-11T01:42:51.011Z,977.260
2023-12-11T01:44:49.830Z,977.423
2023-12-11T01:46:49.715Z,977.387
2023-12-11T01:48:49.801Z,977.439
2023-12-11T01:50:49.570Z,977.407
2023-12-11T01:52:50.149Z,977.457
2023-12-11T01:54:49.820Z,977.370
2023-12-11T01:56:49.589Z,977.405
2023-12-11T01:58:50.198Z,977.422
2023-12-11T02:00:50.123Z,977.263
2023-12-11T02:02:49.809Z,977.254
2023-12-11T02:04:49.792Z,977.422
2023-12-11T02:06:49.711Z,977.274
2023-12-11T02:08:49.485Z,977.358
2023-12-11T02:10:50.103Z,977.277
2023-12-11T02:12:49.759Z,977.394
2023-12-11T02:14:49.519Z,977.345
2023-12-11T02:16:50.323Z,977.346
2023-12-11T02:18:50.479Z,977.306
2023-12-11T02:20:49.374Z,977.296
2023-12-11T02:22:50.211Z,977.219
2023-12-11T02:24:50.042Z,977.345
2023-12-11T02:26:49.840Z,977.330
2023-12-11T02:28:49.630Z,977.341
2023-12-11T02:30:50.295Z,977.341
2023-12-11T02:32:50.068Z,977.204
2023-12-11T02:34:50.001Z,977.256
2023-12-11T02:36:49.909Z,977.180
2023-12-11T02:38:49.645Z,977.224
2023-12-11T02:40:49.506Z,977.213
2023-12-11T02:42:50.406Z,977.248
2023-12-11T02:44:50.130Z,977.050
2023-12-11T02:46:49.979Z,977.128
2023-12-11T02:48:50.061Z,977.128
2023-12-11T02:50:49.775Z,977.105
2023-12-11T02:52:49.647Z,977.268
2023-12-11T02:54:49.487Z,977.234
2023-12-11T02:56:50.220Z,977.257
2023-12-11T02:58:49.939Z,977.155
2023-12-11T03:00:49.942Z,977.261
2023-12-11T03:02:49.636Z,977.191
2023-12-11T03:04:49.640Z,977.202
2023-12-11T03:06:49.557Z,977.144
2023-12-11T03:08:50.389Z,977.146
2023-12-11T03:10:50.682Z,977.133
2023-12-11T03:12:49.589Z,977.099
2023-12-11T03:14:50.332Z,977.120
2023-12-11T03:16:49.942Z,977.173
2023-12-11T03:18:49.778Z,977.147
2023-12-11T03:20:49.634Z,977.097
2023-12-11T03:22:49.430Z,977.103
2023-12-11T03:24:50.270Z,977.110
2023-12-11T03:26:50.235Z,977.207
2023-12-11T03:28:50.151Z,977.218
2023-12-11T03:30:49.881Z,977.232
2023-12-11T03:32:49.722Z,977.313
2023-12-11T03:34:49.516Z,977.155
2023-12-11T03:36:50.367Z,977.177
2023-12-11T03:38:50.125Z,977.255
2023-12-11T03:40:49.735Z,977.224
2023-12-11T03:42:49.606Z,977.178
2023-12-11T03:44:49.383Z,977.297
2023-12-11T03:46:50.185Z,977.230
2023-12-11T03:48:50.112Z,977.178
2023-12-11T03:50:49.924Z,977.140
2023-12-11T03:52:49.646Z,977.186
2023-12-11T03:54:49.530Z,977.268
2023-12-11T03:56:49.405Z,977.141
2023-12-11T03:58:50.289Z,977.187
2023-12-11T04:00:50.023Z,977.131
2023-12-11T04:02:49.685Z,977.189
2023-12-11T04:06:50.364Z,977.122
2023-12-11T04:08:50.129Z,977.033
2023-12-11T04:10:49.764Z,977.127
2023-12-11T04:12:49.617Z,977.114
2023-12-11T04:14:49.405Z,977.153
2023-12-11T04:16:50.183Z,977.146
2023-12-11T04:18:50.116Z,977.135
2023-12-11T04:20:49.821Z,977.117
2023-12-11T04:22:49.643Z,977.152
2023-12-11T04:24:49.511Z,977.115
2023-12-11T04:26:49.465Z,977.102
2023-12-11T04:28:50.352Z,977.253
2023-12-11T04:30:50.191Z,977.163
2023-12-11T04:32:49.981Z,977.252
2023-12-11T04:34:49.726Z,977.194
2023-12-11T04:36:49.591Z,977.207
2023-12-11T04:38:49.351Z,977.209
2023-12-11T04:40:49.968Z,977.144
2023-12-11T04:42:49.820Z,977.277
2023-12-11T04:44:49.618Z,977.181
2023-12-11T04:46:49.422Z,977.078
2023-12-11T04:48:50.292Z,977.117
2023-12-11T04:50:50.071Z,977.135
2023-12-11T04:52:49.638Z,977.165
2023-12-11T04:54:50.398Z,977.119
2023-12-11T04:56:50.318Z,977.133
2023-12-11T04:58:50.091Z,977.062
2023-12-11T05:00:49.751Z,976.896
2023-12-11T05:02:49.606Z,977.082
2023-12-11T05:04:49.360Z,977.005
2023-12-11T05:06:50.188Z,976.893
2023-12-11T05:08:50.193Z,976.905
2023-12-11T05:10:49.977Z,977.060
2023-12-11T05:12:49.846Z,976.891
2023-12-11T05:14:49.627Z,976.867
2023-12-11T05:16:49.494Z,976.909
2023-12-11T05:18:50.341Z,976.929
2023-12-11T05:20:50.257Z,977.070
2023-12-11T05:22:49.867Z,977.024
2023-12-11T05:24:49.748Z,977.068
2023-12-11T05:26:49.527Z,977.074
2023-12-11T05:28:50.317Z,977.133
2023-12-11T05:30:50.303Z,977.068
2023-12-11T05:32:50.184Z,977.196
2023-12-11T05:34:50.072Z,977.204
2023-12-11T05:36:49.772Z,977.240
2023-12-11T05:38:49.601Z,977.280
2023-12-11T05:40:49.476Z,977.358
2023-12-11T05:42:50.286Z,977.395
2023-12-11T05:44:50.054Z,977.308
2023-12-11T05:46:49.842Z,977.313
2023-12-11T05:48:49.767Z,977.397
2023-12-11T05:50:49.486Z,977.420
2023-12-11T05:52:50.282Z,977.469
2023-12-11T05:54:50.167Z,977.393
2023-12-11T05:56:50.031Z,977.325
2023-12-11T05:58:49.743Z,977.376
2023-12-11T06:00:49.750Z,977.307
2023-12-11T06:02:49.593Z,977.309
2023-12-11T06:04:49.380Z,977.302
2023-12-11T06:06:50.261Z,977.223
2023-12-11T06:08:50.012Z,977.295
2023-12-11T06:10:49.846Z,977.080
2023-12-11T06:12:49.750Z,976.947
2023-12-11T06:14:49.991Z,976.970
2023-12-11T06:16:49.875Z,977.056
2023-12-11T06:18:49.789Z,977.047
2023-12-11T06:20:49.736Z,977.039
2023-12-11T06:22:49.509Z,977.018
2023-12-11T06:24:50.375Z,976.956
2023-12-11T06:26:50.137Z,977.075
2023-12-11T06:28:49.728Z,977.113
2023-12-11T06:30:49.390Z,977.009
2023-12-11T06:32:50.213Z,976.957
2023-12-11T06:34:50.101Z,977.101
2023-12-11T06:36:50.072Z,977.073
2023-12-11T06:38:50.250Z,977.071
2023-12-11T06:40:50.040Z,977.097
2023-12-11T06:42:49.752Z,977.115
2023-12-11T06:44:49.494Z,977.105
2023-12-11T06:46:49.522Z,977.090
2023-12-11T06:48:50.455Z,977.017
2023-12-11T06:50:50.353Z,977.036
2023-12-11T06:52:50.136Z,977.015
2023-12-11T06:54:49.980Z,977.057
2023-12-11T06:56:49.753Z,976.985
2023-12-11T06:58:49.680Z,977.034
2023-12-11T07:00:49.541Z,977.081
2023-12-11T07:02:49.430Z,977.005
2023-12-11T07:04:50.371Z,976.877
2023-12-11T07:06:50.293Z,976.877
2023-12-11T07:08:50.045Z,976.923
2023-12-11T07:10:49.961Z,976.892
2023-12-11T07:12:49.700Z,976.841
2023-12-11T07:14:49.560Z,976.901
2023-12-11T07:16:50.303Z,976.877
2023-12-11T07:18:50.031Z,976.818
2023-12-11T07:20:49.944Z,976.885
2023-12-11T07:22:49.801Z,976.934
2023-12-11T07:24:49.604Z,976.943
2023-12-11T07:26:49.388Z,976.928
2023-12-11T07:28:50.215Z,976.899
2023-12-11T07:30:50.053Z,976.834
2023-12-11T07:32:49.847Z,976.813
2023-12-11T07:34:49.708Z,976.756
2023-12-11T07:36:49.592Z,976.645
2023-12-11T07:38:50.268Z,976.675
2023-12-11T07:40:50.085Z,976.663
2023-12-11T07:42:49.953Z,976.556
2023-12-11T07:44:49.723Z,976.507
2023-12-11T07:46:49.504Z,976.445
2023-12-11T07:48:50.507Z,976.443
2023-12-11T07:50:49.382Z,976.360
2023-12-11T07:52:50.073Z,976.332
2023-12-11T07:54:49.792Z,976.362
2023-12-11T07:56:49.601Z,976.345
2023-12-11T07:58:49.425Z,976.345
2023-12-11T08:00:50.345Z,976.522
2023-12-11T08:02:50.236Z,976.457
2023-12-11T08:04:50.171Z,976.501
2023-12-11T08:06:49.592Z,976.428
2023-12-11T08:08:49.399Z,976.389
2023-12-11T08:10:50.225Z,976.303
2023-12-11T08:12:50.063Z,976.303
2023-12-11T08:14:49.829Z,976.268
2023-12-11T08:16:49.633Z,976.244
2023-12-11T08:18:49.749Z,976.213
2023-12-11T08:20:52.625Z,976.264
2023-12-11T08:22:50.105Z,976.292
2023-12-11T08:24:49.910Z,976.168
2023-12-11T08:26:49.805Z,976.118
2023-12-11T08:28:49.730Z,976.095
2023-12-11T08:30:49.649Z,976.113
2023-12-11T08:32:49.631Z,976.131
2023-12-11T08:34:49.677Z,976.006
2023-12-11T08:36:49.637Z,976.064
2023-12-11T08:38:49.817Z,976.013
2023-12-11T08:40:49.617Z,976.048
2023-12-11T08:42:49.545Z,976.012
2023-12-11T08:44:49.485Z,976.016
2023-12-11T08:46:49.465Z,976.018
2023-12-11T08:48:49.500Z,975.958
2023-12-11T08:50:50.289Z,975.931
2023-12-11T08:52:50.121Z,975.954
2023-12-11T08:54:49.868Z,975.853
2023-12-11T08:56:49.537Z,975.961
2023-12-11T08:58:49.365Z,975.830
2023-12-11T09:00:50.288Z,975.753
2023-12-11T09:02:50.237Z,975.765
2023-12-11T09:04:50.016Z,975.837
2023-12-11T09:06:49.827Z,975.778
2023-12-11T09:08:49.685Z,975.798
2023-12-11T09:10:49.470Z,975.797
2023-12-11T09:12:50.328Z,975.795
2023-12-11T09:14:50.046Z,975.755
2023-12-11T09:16:49.723Z,975.720
2023-12-11T09:18:49.506Z,975.798
2023-12-11T09:20:50.499Z,975.747
2023-12-11T09:22:50.363Z,975.871
2023-12-11T09:24:50.240Z,975.823
2023-12-11T09:26:49.946Z,975.741
2023-12-11T09:28:52.224Z,975.787
2023-12-11T09:30:49.414Z,975.708
2023-12-11T09:32:50.300Z,975.788
2023-12-11T09:34:50.345Z,975.872
2023-12-11T09:36:50.299Z,975.864
2023-12-11T09:38:49.403Z,975.800
2023-12-11T09:40:49.463Z,975.983
2023-12-11T09:42:50.307Z,975.860
2023-12-11T09:44:50.111Z,975.940
2023-12-11T09:46:49.888Z,975.851
2023-12-11T09:48:49.843Z,975.969
2023-12-11T09:50:49.502Z,976.011
2023-12-11T09:52:50.341Z,975.927
2023-12-11T09:54:50.005Z,975.940
2023-12-11T09:56:49.773Z,975.919
2023-12-11T09:58:49.587Z,976.043
2023-12-11T10:00:50.302Z,976.002
2023-12-11T10:02:50.088Z,975.974
2023-12-11T10:04:50.042Z,976.019
2023-12-11T10:06:49.923Z,975.955
2023-12-11T10:08:49.758Z,975.816
2023-12-11T10:10:49.475Z,975.792
2023-12-11T10:12:50.349Z,975.844
2023-12-11T10:14:50.094Z,975.860
2023-12-11T10:16:49.938Z,975.750
2023-12-11T10:18:49.951Z,975.849
2023-12-11T10:20:50.040Z,975.817
2023-12-11T10:22:49.961Z,975.783
2023-12-11T10:24:49.840Z,975.857
2023-12-11T10:26:49.592Z,975.815
2023-12-11T10:28:49.532Z,975.685
2023-12-11T10:30:50.299Z,975.830
2023-12-11T10:32:50.066Z,975.738
2023-12-11T10:34:49.960Z,975.845
2023-12-11T10:36:49.898Z,975.844
2023-12-11T10:38:49.722Z,975.781
2023-12-11T10:40:49.708Z,975.826
2023-12-11T10:42:49.466Z,975.816
2023-12-11T10:44:53.883Z,975.629
2023-12-11T10:46:49.552Z,975.628
2023-12-11T10:48:49.577Z,975.564
2023-12-11T10:50:49.375Z,975.496
2023-12-11T10:52:50.228Z,975.552
2023-12-11T10:54:50.135Z,975.558
2023-12-11T10:56:50.103Z,975.598
2023-12-11T10:58:49.797Z,975.580
2023-12-11T11:00:49.870Z,975.577
2023-12-11T11:02:49.697Z,975.586
2023-12-11T11:04:49.712Z,975.792
2023-12-11T11:06:49.545Z,975.703
2023-12-11T11:08:49.531Z,975.735
2023-12-11T11:10:50.324Z,975.667
2023-12-11T11:12:51.079Z,975.739
2023-12-11T11:14:50.165Z,975.759
2023-12-11T11:16:49.948Z,975.761
2023-12-11T11:18:49.887Z,975.784
2023-12-11T11:20:49.806Z,975.796
2023-12-11T11:22:49.768Z,975.680
2023-12-11T11:24:49.806Z,975.718
2023-12-11T11:26:50.794Z,975.808
2023-12-11T11:28:49.687Z,975.746
2023-12-11T11:30:49.572Z,975.703
2023-12-11T11:32:49.515Z,975.741
2023-12-11T11:34:49.514Z,975.785
2023-12-11T11:36:50.352Z,975.788
2023-12-11T11:38:50.115Z,975.681
2023-12-11T11:40:50.244Z,975.668
2023-12-11T11:42:50.181Z,975.696
2023-12-11T11:44:49.980Z,975.717
2023-12-11T11:46:49.765Z,975.747
2023-12-11T11:48:49.751Z,975.725
2023-12-11T11:50:49.625Z,975.796
2023-12-11T11:52:49.424Z,975.659
2023-12-11T11:54:50.269Z,975.813
2023-12-11T11:56:50.049Z,975.807
2023-12-11T11:58:49.873Z,975.897
2023-12-11T12:00:49.732Z,975.854
2023-12-11T12:02:49.570Z,975.969
2023-12-11T12:04:50.334Z,975.904
2023-12-11T12:06:50.129Z,975.896
2023-12-11T12:08:49.834Z,975.907
2023-12-11T12:10:49.649Z,975.917
2023-12-11T12:12:49.671Z,975.984
2023-12-11T12:14:49.583Z,975.984
2023-12-11T12:16:50.189Z,976.021
2023-12-11T12:18:49.889Z,976.072
2023-12-11T12:20:49.626Z,976.168
2023-12-11T12:22:50.246Z,976.029
2023-12-11T12:24:50.328Z,976.081
2023-12-11T12:26:50.127Z,976.009
2023-12-11T12:28:49.854Z,975.994
2023-12-11T12:30:49.522Z,975.940
2023-12-11T12:32:50.388Z,975.945
2023-12-11T12:34:50.196Z,976.014
2023-12-11T12:36:50.181Z,976.051
2023-12-11T12:38:49.990Z,975.958
2023-12-11T12:40:49.736Z,975.981
2023-12-11T12:42:49.628Z,976.071
2023-12-11T12:44:49.409Z,976.038
2023-12-11T12:46:50.184Z,976.002
2023-12-11T12:48:50.132Z,975.971
2023-12-11T12:50:49.880Z,975.987
2023-12-11T12:52:49.676Z,975.973
2023-12-11T12:54:49.541Z,976.124
2023-12-11T12:56:49.505Z,976.018
2023-12-11T12:58:50.300Z,975.954
2023-12-11T13:00:50.177Z,975.954
2023-12-11T13:02:49.968Z,975.979
2023-12-11T13:04:49.785Z,976.034
2023-12-11T13:06:49.680Z,976.027
2023-12-11T13:08:49.370Z,975.987
2023-12-11T13:10:49.950Z,975.967
2023-12-11T13:12:49.600Z,976.048
2023-12-11T13:14:49.410Z,976.127
2023-12-11T13:16:50.220Z,976.144
2023-12-11T13:18:49.894Z,976.176
2023-12-11T13:20:49.766Z,976.130
2023-12-11T13:22:49.649Z,976.045
2023-12-11T13:24:50.338Z,976.045
2023-12-11T13:26:50.122Z,976.127
2023-12-11T13:28:50.122Z,976.100
2023-12-11T13:30:49.958Z,976.123
2023-12-11T13:32:49.776Z,976.175
2023-12-11T13:34:49.612Z,976.159
2023-12-11T13:36:49.434Z,976.196
2023-12-11T13:38:50.225Z,976.213
2023-12-11T13:40:49.978Z,976.213
2023-12-11T13:42:50.858Z,976.188
2023-12-11T13:44:50.274Z,976.273
2023-12-11T13:46:50.051Z,976.303
2023-12-11T13:48:49.824Z,976.253
2023-12-11T13:50:49.718Z,976.193
2023-12-11T13:52:49.529Z,976.248
2023-12-11T13:54:50.330Z,976.342
2023-12-11T13:56:50.176Z,976.333
2023-12-11T13:58:49.972Z,976.367
2023-12-11T14:00:49.801Z,976.322
2023-12-11T14:03:00.860Z,976.302
2023-12-11T14:04:49.534Z,976.460
2023-12-11T14:06:49.442Z,976.401
2023-12-11T14:08:50.234Z,976.347
2023-12-11T14:10:50.011Z,976.439
2023-12-11T14:12:49.668Z,976.389
2023-12-11T14:14:49.463Z,976.537
2023-12-11T14:16:50.338Z,976.423
2023-12-11T14:18:50.147Z,976.560
2023-12-11T14:20:49.909Z,976.581
2023-12-11T14:22:49.527Z,976.465
2023-12-11T14:24:50.373Z,976.710
2023-12-11T14:26:54.695Z,976.580
2023-12-11T14:28:49.959Z,976.607
2023-12-11T14:30:49.837Z,976.649
2023-12-11T14:32:49.921Z,976.707
2023-12-11T14:34:50.006Z,976.683
2023-12-11T14:36:49.832Z,976.773
2023-12-11T14:38:49.698Z,976.921
2023-12-11T14:40:49.449Z,976.871
2023-12-11T14:42:50.308Z,976.898
2023-12-11T14:44:50.098Z,976.865
2023-12-11T14:46:49.871Z,976.864
2023-12-11T14:48:49.819Z,976.914
2023-12-11T14:50:49.590Z,976.920
2023-12-11T14:52:49.348Z,976.874
2023-12-11T14:54:50.250Z,976.990
2023-12-11T14:56:49.978Z,976.989
2023-12-11T14:58:49.770Z,977.133
2023-12-11T15:00:49.720Z,977.071
2023-12-11T15:02:49.474Z,977.135
2023-12-11T15:04:50.243Z,977.193
2023-12-11T15:06:50.155Z,977.184
2023-12-11T15:08:49.872Z,977.242
2023-12-11T15:10:49.673Z,977.188
2023-12-11T15:12:49.515Z,977.234
2023-12-11T15:14:49.724Z,977.277
2023-12-11T15:16:49.540Z,977.431
2023-12-11T15:18:50.591Z,977.521
2023-12-11T15:20:50.334Z,977.529
2023-12-11T15:22:49.938Z,977.551
2023-12-11T15:24:49.627Z,977.563
2023-12-11T15:26:49.392Z,977.650
2023-12-11T15:28:50.225Z,977.640
2023-12-11T15:30:50.079Z,977.667
2023-12-11T15:32:50.034Z,977.601
2023-12-11T15:34:49.855Z,977.694
2023-12-11T15:36:49.772Z,977.796
2023-12-11T15:38:49.499Z,977.670
2023-12-11T15:40:50.297Z,977.694
2023-12-11T15:42:50.141Z,977.664
2023-12-11T15:44:49.925Z,977.704
2023-12-11T15:46:49.782Z,977.708
2023-12-11T15:48:49.701Z,977.663
2023-12-11T15:50:49.680Z,977.802
2023-12-11T15:52:49.373Z,977.907
2023-12-11T15:54:50.253Z,978.022
2023-12-11T15:56:50.042Z,977.966
2023-12-11T15:58:49.837Z,978.119
2023-12-11T16:00:49.738Z,978.114
2023-12-11T16:02:49.583Z,978.099
2023-12-11T16:04:49.504Z,978.131
2023-12-11T16:06:50.309Z,978.132
2023-12-11T16:08:50.096Z,978.116
2023-12-11T16:10:49.896Z,978.136
2023-12-11T16:12:49.813Z,978.121
2023-12-11T16:14:49.747Z,978.106
2023-12-11T16:16:49.779Z,978.202
2023-12-11T16:18:49.890Z,978.170
2023-12-11T16:20:49.813Z,978.141
2023-12-11T16:22:49.567Z,978.125
2023-12-11T16:24:50.251Z,978.120
2023-12-11T16:26:50.056Z,978.133
2023-12-11T16:28:49.805Z,978.161
2023-12-11T16:30:49.775Z,978.222
2023-12-11T16:32:49.763Z,978.189
2023-12-11T16:34:49.542Z,978.219
2023-12-11T16:36:49.530Z,978.116
2023-12-11T16:38:50.347Z,978.097
2023-12-11T16:40:50.157Z,978.261
2023-12-11T16:42:49.787Z,978.272
2023-12-11T16:44:49.569Z,978.368
2023-12-11T16:46:49.584Z,978.279
2023-12-11T16:48:50.369Z,978.279
2023-12-11T16:50:50.275Z,978.348
2023-12-11T16:52:50.002Z,978.338
2023-12-11T16:54:49.711Z,978.378
2023-12-11T16:56:49.489Z,978.377
2023-12-11T16:58:50.249Z,978.500
2023-12-11T17:00:50.098Z,978.442
2023-12-11T17:02:49.882Z,978.518
2023-12-11T17:04:49.841Z,978.432
2023-12-11T17:06:49.764Z,978.548
2023-12-11T17:08:49.531Z,978.677
2023-12-11T17:10:50.337Z,978.648
2023-12-11T17:12:50.188Z,978.571
2023-12-11T17:14:49.986Z,978.546
2023-12-11T17:16:49.754Z,978.648
2023-12-11T17:18:49.759Z,978.672
2023-12-11T17:20:49.647Z,978.770
2023-12-11T17:22:49.457Z,978.728
2023-12-11T17:24:50.271Z,978.736
2023-12-11T17:26:50.048Z,978.760
2023-12-11T17:28:49.665Z,978.761
2023-12-11T17:30:50.325Z,978.724
2023-12-11T17:32:50.103Z,978.724
2023-12-11T17:34:50.095Z,978.622
2023-12-11T17:36:50.011Z,978.712
2023-12-11T17:38:49.853Z,978.660
2023-12-11T17:40:49.582Z,978.781
2023-12-11T17:42:49.480Z,978.842
2023-12-11T17:44:49.396Z,978.800
2023-12-11T17:46:50.193Z,978.844
2023-12-11T17:48:49.881Z,978.853
2023-12-11T17:50:49.639Z,978.881
2023-12-11T17:52:49.483Z,978.902
2023-12-11T17:54:50.551Z,978.925
2023-12-11T17:56:50.303Z,978.976
2023-12-11T17:58:50.106Z,978.857
2023-12-11T18:00:49.988Z,978.931
2023-12-11T18:02:49.694Z,978.957
2023-12-11T18:04:49.648Z,978.978
2023-12-11T18:06:49.696Z,978.978
2023-12-11T18:08:49.368Z,978.929
2023-12-11T18:10:50.195Z,978.896
2023-12-11T18:12:50.014Z,978.903
2023-12-11T18:14:49.794Z,978.930
2023-12-11T18:16:49.634Z,978.965
2023-12-11T18:18:49.524Z,979.009
2023-12-11T18:20:50.252Z,979.018
2023-12-11T18:22:50.043Z,979.105
2023-12-11T18:24:49.687Z,979.063
2023-12-11T18:26:49.544Z,979.132
2023-12-11T18:28:50.347Z,979.088
2023-12-11T18:30:50.192Z,979.227
2023-12-11T18:32:49.950Z,979.214
2023-12-11T18:34:54.666Z,979.229
2023-12-11T18:36:49.962Z,979.201
2023-12-11T18:38:49.777Z,979.312
2023-12-11T18:40:49.626Z,979.228
2023-12-11T18:42:49.480Z,979.287
2023-12-11T18:44:50.251Z,979.383
2023-12-11T18:46:49.792Z,979.211
2023-12-11T18:48:49.821Z,979.172
2023-12-11T18:50:49.882Z,979.176
2023-12-11T18:52:49.499Z,979.200
2023-12-11T18:54:50.338Z,979.200
2023-12-11T18:56:50.099Z,979.392
2023-12-11T18:58:49.682Z,979.365
2023-12-11T19:00:50.433Z,979.435
2023-12-11T19:02:50.517Z,979.290
2023-12-11T19:04:49.444Z,979.418
2023-12-11T19:06:50.211Z,979.390
2023-12-11T19:08:50.012Z,979.436
2023-12-11T19:10:49.797Z,979.541
2023-12-11T19:12:49.484Z,979.446
2023-12-11T19:14:50.241Z,979.427
2023-12-11T19:16:50.134Z,979.457
2023-12-11T19:18:50.037Z,979.570
2023-12-11T19:20:49.892Z,979.667
2023-12-11T19:22:49.753Z,979.668
2023-12-11T19:24:49.520Z,979.710
2023-12-11T19:26:50.347Z,979.741
2023-12-11T19:28:50.132Z,979.815
2023-12-11T19:30:49.872Z,979.835
2023-12-11T19:32:49.818Z,979.876
2023-12-11T19:34:49.731Z,979.905
2023-12-11T19:36:49.413Z,980.001
2023-12-11T19:38:50.223Z,980.068
2023-12-11T19:40:50.031Z,980.002
2023-12-11T19:42:49.728Z,980.077
2023-12-11T19:44:49.480Z,980.234
2023-12-11T19:46:50.298Z,980.151
2023-12-11T19:48:50.279Z,980.095
2023-12-11T19:50:50.111Z,980.092
2023-12-11T19:52:51.428Z,980.138
2023-12-11T19:54:49.745Z,980.138
2023-12-11T19:56:49.627Z,980.218
2023-12-11T19:58:49.346Z,980.233
2023-12-11T20:00:50.285Z,980.375
2023-12-11T20:02:50.104Z,980.225
2023-12-11T20:04:50.074Z,980.300
2023-12-11T20:06:49.823Z,980.313
2023-12-11T20:08:49.429Z,980.392
2023-12-11T20:10:50.263Z,980.337
2023-12-11T20:12:50.097Z,980.349
2023-12-11T20:14:49.862Z,980.496
2023-12-11T20:16:49.680Z,980.458
2023-12-11T20:18:50.420Z,980.542
2023-12-11T20:20:50.237Z,980.584
2023-12-11T20:22:49.900Z,980.660
2023-12-11T20:24:49.547Z,980.702
2023-12-11T20:26:50.288Z,980.722
2023-12-11T20:28:49.994Z,980.657
2023-12-11T20:30:49.853Z,980.759
2023-12-11T20:32:49.848Z,980.779
2023-12-11T20:34:49.762Z,980.824
2023-12-11T20:36:49.654Z,980.785
2023-12-11T20:38:49.463Z,980.836
2023-12-11T20:40:50.263Z,980.838
2023-12-11T20:42:50.112Z,980.859
2023-12-11T20:44:49.895Z,980.897
2023-12-11T20:46:49.695Z,980.821
2023-12-11T20:48:50.400Z,980.819
2023-12-11T20:50:50.153Z,980.978
2023-12-11T20:52:49.943Z,981.039
2023-12-11T20:54:49.623Z,981.104
2023-12-11T20:56:49.449Z,981.122
2023-12-11T20:58:50.170Z,981.181
2023-12-11T21:00:50.089Z,981.126
2023-12-11T21:02:49.804Z,981.108
2023-12-11T21:04:49.811Z,981.121
2023-12-11T21:06:49.749Z,981.145
2023-12-11T21:08:49.521Z,981.176
2023-12-11T21:10:50.266Z,981.176
2023-12-11T21:12:49.905Z,981.243
2023-12-11T21:14:49.758Z,981.181
2023-12-11T21:16:49.548Z,981.156
2023-12-11T21:18:49.549Z,981.156
2023-12-11T21:20:49.381Z,981.165
2023-12-11T21:22:50.147Z,981.262
2023-12-11T21:24:49.796Z,981.225
2023-12-11T21:26:49.727Z,981.372
2023-12-11T21:28:49.414Z,981.307
2023-12-11T21:30:50.261Z,981.242
2023-12-11T21:32:50.116Z,981.337
2023-12-11T21:34:50.202Z,981.388
2023-12-11T21:36:49.916Z,981.384
2023-12-11T21:38:49.794Z,981.541
2023-12-11T21:40:49.497Z,981.522
2023-12-11T21:42:49.516Z,981.398
2023-12-11T21:44:50.353Z,981.474
2023-12-11T21:46:50.154Z,981.409
2023-12-11T21:48:50.527Z,981.469
2023-12-11T21:50:49.377Z,981.459
2023-12-11T21:52:50.061Z,981.478
2023-12-11T21:54:49.789Z,981.499
2023-12-11T21:56:49.720Z,981.465
2023-12-11T21:58:49.437Z,981.571
2023-12-11T22:00:50.336Z,981.571
2023-12-11T22:02:50.114Z,981.622
2023-12-11T22:04:50.078Z,981.586
2023-12-11T22:06:49.687Z,981.559
2023-12-11T22:08:49.536Z,981.559
2023-12-11T22:10:49.543Z,981.659
2023-12-11T22:12:49.370Z,981.677
2023-12-11T22:14:50.144Z,981.651
2023-12-11T22:16:49.728Z,981.739
2023-12-11T22:18:49.767Z,981.739
2023-12-11T22:20:49.599Z,981.719
2023-12-11T22:22:49.397Z,981.691
2023-12-11T22:24:50.122Z,981.736
2023-12-11T22:26:49.829Z,981.679
2023-12-11T22:28:49.663Z,981.784
2023-12-11T22:30:50.291Z,981.762
2023-12-11T22:32:50.138Z,981.680
2023-12-11T22:34:49.894Z,981.709
2023-12-11T22:36:49.788Z,981.719
2023-12-11T22:38:49.540Z,981.669
2023-12-11T22:40:49.346Z,981.742
2023-12-11T22:42:50.177Z,981.796
2023-12-11T22:44:49.962Z,981.794
2023-12-11T22:46:49.565Z,981.847
2023-12-11T22:48:50.303Z,981.764
2023-12-11T22:50:50.224Z,981.700
2023-12-11T22:52:50.050Z,981.807
2023-12-11T22:54:49.962Z,981.734
2023-12-11T22:56:49.620Z,981.618
2023-12-11T22:58:50.304Z,981.733
2023-12-11T23:00:50.313Z,981.739
2023-12-11T23:02:50.295Z,981.684
2023-12-11T23:04:50.197Z,981.825
2023-12-11T23:06:49.937Z,981.751
2023-12-11T23:08:49.677Z,981.745
2023-12-11T23:10:50.363Z,981.755
2023-12-11T23:12:50.201Z,981.763
2023-12-11T23:14:50.006Z,981.773
2023-12-11T23:16:49.605Z,981.709
2023-12-11T23:18:49.461Z,981.634
2023-12-11T23:20:49.431Z,981.705
2023-12-11T23:22:50.242Z,981.739
2023-12-11T23:24:50.089Z,981.726
2023-12-11T23:26:49.882Z,981.729
2023-12-11T23:28:49.673Z,981.700
2023-12-11T23:30:50.310Z,981.821
2023-12-11T23:32:50.270Z,981.852
2023-12-11T23:34:50.187Z,981.786
2023-12-11T23:36:49.957Z,981.778
2023-12-11T23:38:49.757Z,981.898
2023-12-11T23:40:49.569Z,981.957
2023-12-11T23:42:49.521Z,981.943
2023-12-11T23:44:50.212Z,981.976
2023-12-11T23:46:49.940Z,981.937
2023-12-11T23:48:49.706Z,981.979
2023-12-11T23:50:49.488Z,981.976
2023-12-11T23:52:50.251Z,982.053
2023-12-11T23:54:49.854Z,982.031
2023-12-11T23:56:49.707Z,981.953
2023-12-11T23:58:49.504Z,981.924
